KRDM/RDM METAR and TAF weather

Enter ICAO airport designator
Station Type Date Time Source
KRDM METAR 2020/01/19 13:56 UTC NOAA

KRDM 191356Z 00000KT 10SM OVC043 M01/M03 A3031 RMK AO2 SLP280 T10111033


Station Type Date Time Source
KRDM Decoded METAR 2020/01/19 13:56 UTC NOAA

REDMOND ROBERTS FIELD, OR, United States (KRDM) 44-15N 121-08W
Jan 19, 2020 - 08:56 AM EST / 2020.01.19 1356 UTC
Wind: Calm:0
Visibility: 10 mile(s):0
Sky conditions: overcast
Temperature: 30.0 F (-1.1 C)
Dew Point: 26.1 F (-3.3 C)
Relative Humidity: 84%
Pressure (altimeter): 30.31 in. Hg (1026 hPa)
ob: KRDM 191356Z 00000KT 10SM OVC043 M01/M03 A3031 RMK AO2 SLP280 T10111033
cycle: 14

Station Type Date Time Source
KRDM TAF 2020/01/19 12:30 UTC NOAA

TAF KRDM 191124Z 1912/2012 VRB05KT P6SM BKN250
FM200200 VRB05KT P6SM OVC150

Example: see airport list